sensor_id;sensor_type;location;lat;lon;timestamp;pressure;altitude;pressure_sealevel;temperature;humidity
4590;BME280;2307;48.448;9.216;2022-08-04T00:00:27;95288.56;;;27.40;35.74
4590;BME280;2307;48.448;9.216;2022-08-04T00:02:58;95280.09;;;27.41;34.80
4590;BME280;2307;48.448;9.216;2022-08-04T00:05:32;95281.25;;;27.28;35.85
4590;BME280;2307;48.448;9.216;2022-08-04T00:08:04;95285.09;;;27.27;35.21
4590;BME280;2307;48.448;9.216;2022-08-04T00:10:31;95282.38;;;27.27;36.16
4590;BME280;2307;48.448;9.216;2022-08-04T00:12:59;95275.16;;;27.31;35.73
4590;BME280;2307;48.448;9.216;2022-08-04T00:15:29;95277.66;;;27.24;35.16
4590;BME280;2307;48.448;9.216;2022-08-04T00:17:58;95289.19;;;27.33;35.06
4590;BME280;2307;48.448;9.216;2022-08-04T00:20:28;95286.91;;;27.35;35.31
4590;BME280;2307;48.448;9.216;2022-08-04T00:22:54;95285.91;;;27.28;34.80
4590;BME280;2307;48.448;9.216;2022-08-04T00:25:22;95280.47;;;27.28;34.83
4590;BME280;2307;48.448;9.216;2022-08-04T00:27:49;95283.31;;;27.19;34.87
4590;BME280;2307;48.448;9.216;2022-08-04T00:30:16;95290.53;;;27.27;34.98
4590;BME280;2307;48.448;9.216;2022-08-04T00:32:43;95290.09;;;27.25;34.91
4590;BME280;2307;48.448;9.216;2022-08-04T00:35:12;95290.34;;;27.20;34.28
4590;BME280;2307;48.448;9.216;2022-08-04T00:37:38;95288.84;;;27.23;34.57
4590;BME280;2307;48.448;9.216;2022-08-04T00:40:07;95288.84;;;27.23;34.09
4590;BME280;2307;48.448;9.216;2022-08-04T00:42:40;95288.84;;;27.23;36.43
4590;BME280;2307;48.448;9.216;2022-08-04T00:45:26;95296.00;;;27.03;38.14
4590;BME280;2307;48.448;9.216;2022-08-04T00:48:03;95298.94;;;26.74;38.84
4590;BME280;2307;48.448;9.216;2022-08-04T00:50:35;95296.00;;;26.67;39.16
4590;BME280;2307;48.448;9.216;2022-08-04T00:53:10;95302.75;;;26.24;39.95
4590;BME280;2307;48.448;9.216;2022-08-04T00:55:52;95301.16;;;26.23;39.79
4590;BME280;2307;48.448;9.216;2022-08-04T00:58:28;95304.25;;;26.13;40.44
4590;BME280;2307;48.448;9.216;2022-08-04T01:00:58;95297.28;;;26.12;40.52
4590;BME280;2307;48.448;9.216;2022-08-04T01:03:41;95306.94;;;26.01;40.99
4590;BME280;2307;48.448;9.216;2022-08-04T01:06:16;95299.00;;;25.84;41.40
4590;BME280;2307;48.448;9.216;2022-08-04T01:08:54;95299.91;;;25.88;41.90
4590;BME280;2307;48.448;9.216;2022-08-04T01:11:30;95304.16;;;25.77;41.92
4590;BME280;2307;48.448;9.216;2022-08-04T01:14:12;95303.47;;;25.68;42.65
4590;BME280;2307;48.448;9.216;2022-08-04T01:16:45;95299.56;;;25.57;43.19
4590;BME280;2307;48.448;9.216;2022-08-04T01:19:16;95301.53;;;25.48;43.78
4590;BME280;2307;48.448;9.216;2022-08-04T01:22:00;95287.59;;;25.37;43.85
4590;BME280;2307;48.448;9.216;2022-08-04T01:24:39;95295.53;;;25.21;43.94
4590;BME280;2307;48.448;9.216;2022-08-04T01:27:12;95289.72;;;25.11;44.79
4590;BME280;2307;48.448;9.216;2022-08-04T01:29:45;95279.38;;;24.92;44.23
4590;BME280;2307;48.448;9.216;2022-08-04T01:32:18;95278.44;;;24.88;44.49
4590;BME280;2307;48.448;9.216;2022-08-04T01:34:46;95272.09;;;24.84;44.95
4590;BME280;2307;48.448;9.216;2022-08-04T01:37:19;95271.19;;;24.71;45.00
4590;BME280;2307;48.448;9.216;2022-08-04T01:39:49;95265.75;;;24.51;45.66
4590;BME280;2307;48.448;9.216;2022-08-04T01:42:16;95259.88;;;24.49;44.96
4590;BME280;2307;48.448;9.216;2022-08-04T01:44:42;95266.06;;;24.49;44.88
4590;BME280;2307;48.448;9.216;2022-08-04T01:47:13;95261.78;;;24.48;43.32
4590;BME280;2307;48.448;9.216;2022-08-04T01:49:42;95260.50;;;24.54;42.22
4590;BME280;2307;48.448;9.216;2022-08-04T01:52:11;95264.81;;;24.76;41.69
4590;BME280;2307;48.448;9.216;2022-08-04T01:54:41;95259.78;;;24.95;41.43
4590;BME280;2307;48.448;9.216;2022-08-04T01:57:08;95259.72;;;25.04;39.49
4590;BME280;2307;48.448;9.216;2022-08-04T01:59:35;95253.06;;;25.22;37.76
4590;BME280;2307;48.448;9.216;2022-08-04T02:02:03;95258.72;;;25.50;37.15
4590;BME280;2307;48.448;9.216;2022-08-04T02:04:31;95259.94;;;25.73;36.44
4590;BME280;2307;48.448;9.216;2022-08-04T02:07:01;95253.44;;;25.86;36.47
4590;BME280;2307;48.448;9.216;2022-08-04T02:09:33;95250.34;;;26.08;36.13
4590;BME280;2307;48.448;9.216;2022-08-04T02:12:04;95253.88;;;26.21;36.36
4590;BME280;2307;48.448;9.216;2022-08-04T02:14:36;95244.53;;;26.30;35.83
4590;BME280;2307;48.448;9.216;2022-08-04T02:17:09;95243.63;;;26.38;35.76
4590;BME280;2307;48.448;9.216;2022-08-04T02:19:40;95245.00;;;26.45;35.76
4590;BME280;2307;48.448;9.216;2022-08-04T02:22:12;95234.38;;;26.52;36.96
4590;BME280;2307;48.448;9.216;2022-08-04T02:24:42;95237.06;;;26.52;35.19
4590;BME280;2307;48.448;9.216;2022-08-04T02:27:13;95234.03;;;26.65;37.01
4590;BME280;2307;48.448;9.216;2022-08-04T02:29:42;95242.59;;;26.67;36.51
4590;BME280;2307;48.448;9.216;2022-08-04T02:32:14;95243.75;;;26.66;36.61
4590;BME280;2307;48.448;9.216;2022-08-04T02:34:47;95239.88;;;26.67;36.58
4590;BME280;2307;48.448;9.216;2022-08-04T02:37:14;95239.13;;;26.67;37.24
4590;BME280;2307;48.448;9.216;2022-08-04T02:39:42;95231.56;;;26.60;36.56
4590;BME280;2307;48.448;9.216;2022-08-04T02:42:11;95237.31;;;26.59;37.06
4590;BME280;2307;48.448;9.216;2022-08-04T02:44:38;95231.66;;;26.52;37.35
4590;BME280;2307;48.448;9.216;2022-08-04T02:47:05;95232.00;;;26.38;38.43
4590;BME280;2307;48.448;9.216;2022-08-04T02:49:33;95235.03;;;26.36;36.84
4590;BME280;2307;48.448;9.216;2022-08-04T02:52:02;95232.34;;;26.24;38.26
4590;BME280;2307;48.448;9.216;2022-08-04T02:54:30;95234.09;;;26.08;37.96
4590;BME280;2307;48.448;9.216;2022-08-04T02:56:58;95238.59;;;26.04;38.41
4590;BME280;2307;48.448;9.216;2022-08-04T02:59:26;95237.47;;;25.93;39.65
4590;BME280;2307;48.448;9.216;2022-08-04T03:01:55;95238.09;;;25.78;40.25
4590;BME280;2307;48.448;9.216;2022-08-04T03:04:26;95232.63;;;25.66;41.09
4590;BME280;2307;48.448;9.216;2022-08-04T03:09:53;95241.00;;;25.40;42.07
4590;BME280;2307;48.448;9.216;2022-08-04T03:12:33;95231.56;;;25.25;42.60
4590;BME280;2307;48.448;9.216;2022-08-04T03:15:12;95234.53;;;25.12;43.23
4590;BME280;2307;48.448;9.216;2022-08-04T03:17:55;95240.75;;;24.92;43.73
4590;BME280;2307;48.448;9.216;2022-08-04T03:23:19;95246.38;;;24.78;43.39
4590;BME280;2307;48.448;9.216;2022-08-04T03:25:56;95246.88;;;24.71;43.71
4590;BME280;2307;48.448;9.216;2022-08-04T03:31:28;95245.34;;;24.62;43.81
4590;BME280;2307;48.448;9.216;2022-08-04T03:34:02;95257.06;;;24.37;44.24
4590;BME280;2307;48.448;9.216;2022-08-04T03:36:47;95256.69;;;24.17;45.19
4590;BME280;2307;48.448;9.216;2022-08-04T03:39:30;95259.28;;;23.88;45.92
4590;BME280;2307;48.448;9.216;2022-08-04T03:42:13;95258.38;;;23.84;46.67
4590;BME280;2307;48.448;9.216;2022-08-04T03:50:18;95258.69;;;23.74;47.62
4590;BME280;2307;48.448;9.216;2022-08-04T03:55:39;95249.72;;;23.53;48.75
4590;BME280;2307;48.448;9.216;2022-08-04T04:01:01;95252.22;;;23.58;49.20
4590;BME280;2307;48.448;9.216;2022-08-04T04:03:39;95251.59;;;23.52;49.65
4590;BME280;2307;48.448;9.216;2022-08-04T04:06:16;95251.28;;;23.54;50.08
4590;BME280;2307;48.448;9.216;2022-08-04T04:11:42;95255.25;;;23.48;49.98
4590;BME280;2307;48.448;9.216;2022-08-04T04:14:14;95257.16;;;23.30;50.02
4590;BME280;2307;48.448;9.216;2022-08-04T04:16:48;95251.13;;;23.33;51.78
4590;BME280;2307;48.448;9.216;2022-08-04T04:22:06;95258.72;;;23.22;51.67
4590;BME280;2307;48.448;9.216;2022-08-04T04:27:17;95253.66;;;23.12;52.37
4590;BME280;2307;48.448;9.216;2022-08-04T04:29:52;95256.50;;;23.07;53.57
4590;BME280;2307;48.448;9.216;2022-08-04T04:32:26;95259.84;;;23.04;53.70
4590;BME280;2307;48.448;9.216;2022-08-04T04:35:09;95257.91;;;22.96;55.15
4590;BME280;2307;48.448;9.216;2022-08-04T04:37:42;95256.03;;;22.97;55.11
4590;BME280;2307;48.448;9.216;2022-08-04T04:40:17;95256.50;;;22.99;55.75
4590;BME280;2307;48.448;9.216;2022-08-04T04:42:52;95265.84;;;23.01;54.49
4590;BME280;2307;48.448;9.216;2022-08-04T04:45:26;95262.03;;;23.02;56.04
4590;BME280;2307;48.448;9.216;2022-08-04T04:47:57;95263.94;;;22.93;56.31
4590;BME280;2307;48.448;9.216;2022-08-04T04:50:30;95271.88;;;22.98;57.92
4590;BME280;2307;48.448;9.216;2022-08-04T04:53:02;95272.22;;;23.05;57.27
4590;BME280;2307;48.448;9.216;2022-08-04T04:55:30;95273.28;;;22.87;56.47
4590;BME280;2307;48.448;9.216;2022-08-04T04:57:58;95280.44;;;22.83;58.01
4590;BME280;2307;48.448;9.216;2022-08-04T05:00:32;95275.50;;;22.85;58.55
4590;BME280;2307;48.448;9.216;2022-08-04T05:03:07;95281.97;;;22.75;58.33
4590;BME280;2307;48.448;9.216;2022-08-04T05:05:42;95279.22;;;22.58;58.43
4590;BME280;2307;48.448;9.216;2022-08-04T05:08:22;95279.88;;;22.64;57.40
4590;BME280;2307;48.448;9.216;2022-08-04T05:11:05;95276.25;;;22.77;60.03
4590;BME280;2307;48.448;9.216;2022-08-04T05:13:40;95272.34;;;22.92;59.66
4590;BME280;2307;48.448;9.216;2022-08-04T05:16:09;95271.72;;;22.95;59.62
4590;BME280;2307;48.448;9.216;2022-08-04T05:18:41;95267.75;;;23.01;59.63
4590;BME280;2307;48.448;9.216;2022-08-04T05:21:14;95275.03;;;23.00;60.32
4590;BME280;2307;48.448;9.216;2022-08-04T05:23:45;95280.44;;;22.83;61.81
4590;BME280;2307;48.448;9.216;2022-08-04T05:26:15;95280.44;;;22.83;60.42
4590;BME280;2307;48.448;9.216;2022-08-04T05:28:44;95274.09;;;22.96;62.58
4590;BME280;2307;48.448;9.216;2022-08-04T05:31:15;95272.00;;;22.93;61.77
4590;BME280;2307;48.448;9.216;2022-08-04T05:33:46;95277.75;;;23.00;62.95
4590;BME280;2307;48.448;9.216;2022-08-04T05:36:15;95279.16;;;23.06;64.94
4590;BME280;2307;48.448;9.216;2022-08-04T05:38:42;95275.03;;;23.00;62.19
4590;BME280;2307;48.448;9.216;2022-08-04T05:41:11;95269.81;;;23.04;63.99
4590;BME280;2307;48.448;9.216;2022-08-04T05:43:38;95275.78;;;22.75;60.85
4590;BME280;2307;48.448;9.216;2022-08-04T05:46:07;95272.81;;;22.77;61.67
4590;BME280;2307;48.448;9.216;2022-08-04T05:48:34;95280.44;;;22.92;62.86
4590;BME280;2307;48.448;9.216;2022-08-04T05:51:03;95285.31;;;22.90;63.22
4590;BME280;2307;48.448;9.216;2022-08-04T05:53:30;95285.31;;;22.90;63.83
4590;BME280;2307;48.448;9.216;2022-08-04T05:55:57;95279.16;;;22.98;63.79
4590;BME280;2307;48.448;9.216;2022-08-04T05:58:25;95278.69;;;22.96;64.63
4590;BME280;2307;48.448;9.216;2022-08-04T06:00:53;95277.91;;;22.95;62.38
4590;BME280;2307;48.448;9.216;2022-08-04T06:03:20;95290.56;;;22.86;61.83
4590;BME280;2307;48.448;9.216;2022-08-04T06:05:48;95287.38;;;22.84;60.96
4590;BME280;2307;48.448;9.216;2022-08-04T06:08:16;95286.28;;;22.94;60.88
4590;BME280;2307;48.448;9.216;2022-08-04T06:10:43;95291.22;;;23.17;60.27
4590;BME280;2307;48.448;9.216;2022-08-04T06:13:11;95284.75;;;23.27;57.65
4590;BME280;2307;48.448;9.216;2022-08-04T06:15:39;95286.31;;;23.37;58.55
4590;BME280;2307;48.448;9.216;2022-08-04T06:18:08;95280.31;;;23.48;59.75
4590;BME280;2307;48.448;9.216;2022-08-04T06:20:36;95283.47;;;23.59;59.05
4590;BME280;2307;48.448;9.216;2022-08-04T06:23:04;95289.19;;;23.57;58.22
4590;BME280;2307;48.448;9.216;2022-08-04T06:25:35;95290.94;;;23.62;57.56
4590;BME280;2307;48.448;9.216;2022-08-04T06:28:04;95285.53;;;23.45;56.91
4590;BME280;2307;48.448;9.216;2022-08-04T06:30:31;95288.69;;;23.47;58.42
4590;BME280;2307;48.448;9.216;2022-08-04T06:32:58;95297.59;;;23.56;57.95
4590;BME280;2307;48.448;9.216;2022-08-04T06:35:27;95299.97;;;23.57;60.07
4590;BME280;2307;48.448;9.216;2022-08-04T06:37:54;95298.88;;;23.50;63.03
4590;BME280;2307;48.448;9.216;2022-08-04T06:40:22;95297.44;;;23.61;65.07
4590;BME280;2307;48.448;9.216;2022-08-04T06:42:50;95286.47;;;23.66;64.82
4590;BME280;2307;48.448;9.216;2022-08-04T06:45:18;95282.19;;;23.65;64.66
4590;BME280;2307;48.448;9.216;2022-08-04T06:47:45;95290.09;;;23.70;65.63
4590;BME280;2307;48.448;9.216;2022-08-04T06:50:12;95281.69;;;23.80;62.85
4590;BME280;2307;48.448;9.216;2022-08-04T06:52:39;95282.16;;;23.91;62.04
4590;BME280;2307;48.448;9.216;2022-08-04T06:55:06;95291.97;;;23.95;62.15
4590;BME280;2307;48.448;9.216;2022-08-04T06:57:33;95287.19;;;24.09;61.41
4590;BME280;2307;48.448;9.216;2022-08-04T07:00:03;95288.91;;;24.22;60.79
4590;BME280;2307;48.448;9.216;2022-08-04T07:02:32;95298.22;;;24.33;61.60
4590;BME280;2307;48.448;9.216;2022-08-04T07:04:59;95298.31;;;24.46;59.79
4590;BME280;2307;48.448;9.216;2022-08-04T07:07:26;95298.31;;;24.54;60.88
4590;BME280;2307;48.448;9.216;2022-08-04T07:09:52;95300.63;;;24.64;60.86
4590;BME280;2307;48.448;9.216;2022-08-04T07:12:19;95296.28;;;24.72;61.08
4590;BME280;2307;48.448;9.216;2022-08-04T07:14:46;95293.25;;;24.82;60.57
4590;BME280;2307;48.448;9.216;2022-08-04T07:17:14;95290.94;;;24.93;60.57
4590;BME280;2307;48.448;9.216;2022-08-04T07:19:41;95291.09;;;24.96;58.89
4590;BME280;2307;48.448;9.216;2022-08-04T07:22:08;95286.91;;;25.07;59.28
4590;BME280;2307;48.448;9.216;2022-08-04T07:24:35;95292.72;;;25.18;58.97
4590;BME280;2307;48.448;9.216;2022-08-04T07:27:02;95287.69;;;25.28;58.00
4590;BME280;2307;48.448;9.216;2022-08-04T07:29:30;95284.59;;;25.38;58.92
4590;BME280;2307;48.448;9.216;2022-08-04T07:31:57;95289.13;;;25.47;59.23
4590;BME280;2307;48.448;9.216;2022-08-04T07:34:26;95288.75;;;25.57;58.41
4590;BME280;2307;48.448;9.216;2022-08-04T07:36:53;95289.94;;;25.68;58.49
4590;BME280;2307;48.448;9.216;2022-08-04T07:39:20;95295.69;;;25.78;57.26
4590;BME280;2307;48.448;9.216;2022-08-04T07:41:47;95293.38;;;25.89;57.03
4590;BME280;2307;48.448;9.216;2022-08-04T07:44:14;95283.72;;;26.00;56.04
4590;BME280;2307;48.448;9.216;2022-08-04T07:46:41;95287.56;;;26.11;55.14
4590;BME280;2307;48.448;9.216;2022-08-04T07:49:07;95287.16;;;26.21;55.34
4590;BME280;2307;48.448;9.216;2022-08-04T07:51:35;95288.66;;;26.31;54.27
4590;BME280;2307;48.448;9.216;2022-08-04T07:54:02;95290.94;;;26.41;53.74
4590;BME280;2307;48.448;9.216;2022-08-04T07:56:29;95282.31;;;26.51;54.47
4590;BME280;2307;48.448;9.216;2022-08-04T07:58:56;95282.25;;;26.60;53.37
4590;BME280;2307;48.448;9.216;2022-08-04T08:01:23;95281.78;;;26.70;56.09
4590;BME280;2307;48.448;9.216;2022-08-04T08:03:50;95283.56;;;26.78;53.55
4590;BME280;2307;48.448;9.216;2022-08-04T08:06:17;95281.56;;;26.87;54.20
4590;BME280;2307;48.448;9.216;2022-08-04T08:08:45;95284.25;;;26.99;55.04
4590;BME280;2307;48.448;9.216;2022-08-04T08:11:12;95280.06;;;27.14;55.73
4590;BME280;2307;48.448;9.216;2022-08-04T08:13:38;95272.22;;;27.24;53.35
4590;BME280;2307;48.448;9.216;2022-08-04T08:16:05;95282.75;;;27.26;53.65
4590;BME280;2307;48.448;9.216;2022-08-04T08:18:31;95281.69;;;27.30;53.55
4590;BME280;2307;48.448;9.216;2022-08-04T08:20:58;95271.75;;;27.34;52.52
4590;BME280;2307;48.448;9.216;2022-08-04T08:23:24;95271.41;;;27.36;51.73
4590;BME280;2307;48.448;9.216;2022-08-04T08:25:52;95263.97;;;27.45;53.47
4590;BME280;2307;48.448;9.216;2022-08-04T08:28:19;95274.13;;;27.48;52.15
4590;BME280;2307;48.448;9.216;2022-08-04T08:30:45;95274.91;;;27.49;52.17
4590;BME280;2307;48.448;9.216;2022-08-04T08:33:12;95272.84;;;27.58;53.84
4590;BME280;2307;48.448;9.216;2022-08-04T08:35:43;95270.91;;;27.58;53.71
4590;BME280;2307;48.448;9.216;2022-08-04T08:38:12;95273.72;;;27.62;52.74
4590;BME280;2307;48.448;9.216;2022-08-04T08:40:41;95272.19;;;27.76;51.39
4590;BME280;2307;48.448;9.216;2022-08-04T08:48:43;95278.84;;;27.79;50.73
4590;BME280;2307;48.448;9.216;2022-08-04T08:51:16;95280.44;;;27.80;50.02
4590;BME280;2307;48.448;9.216;2022-08-04T08:53:49;95282.44;;;27.83;49.44
4590;BME280;2307;48.448;9.216;2022-08-04T08:56:24;95282.97;;;27.88;52.94
4590;BME280;2307;48.448;9.216;2022-08-04T08:58:57;95284.78;;;27.96;51.34
4590;BME280;2307;48.448;9.216;2022-08-04T09:01:30;95290.50;;;28.07;51.02
4590;BME280;2307;48.448;9.216;2022-08-04T09:04:12;95295.91;;;28.07;49.91
4590;BME280;2307;48.448;9.216;2022-08-04T09:06:46;95295.22;;;28.10;51.37
4590;BME280;2307;48.448;9.216;2022-08-04T09:12:04;95290.88;;;28.21;50.03
4590;BME280;2307;48.448;9.216;2022-08-04T09:14:34;95288.16;;;28.21;49.18
4590;BME280;2307;48.448;9.216;2022-08-04T09:17:05;95290.88;;;28.37;48.06
4590;BME280;2307;48.448;9.216;2022-08-04T09:19:38;95293.09;;;28.47;47.88
4590;BME280;2307;48.448;9.216;2022-08-04T09:22:08;95289.47;;;28.59;46.53
4590;BME280;2307;48.448;9.216;2022-08-04T09:24:37;95290.19;;;28.56;46.94
4590;BME280;2307;48.448;9.216;2022-08-04T09:27:12;95291.06;;;28.60;47.96
4590;BME280;2307;48.448;9.216;2022-08-04T09:29:42;95294.59;;;28.76;45.44
4590;BME280;2307;48.448;9.216;2022-08-04T09:32:15;95283.53;;;28.84;43.53
4590;BME280;2307;48.448;9.216;2022-08-04T09:34:46;95291.06;;;28.91;41.57
4590;BME280;2307;48.448;9.216;2022-08-04T09:37:20;95283.66;;;29.07;41.97
4590;BME280;2307;48.448;9.216;2022-08-04T09:39:49;95291.88;;;29.26;41.47
4590;BME280;2307;48.448;9.216;2022-08-04T09:42:22;95292.63;;;29.42;40.47
4590;BME280;2307;48.448;9.216;2022-08-04T09:44:56;95299.63;;;29.63;41.19
4590;BME280;2307;48.448;9.216;2022-08-04T09:47:25;95291.63;;;29.89;39.92
4590;BME280;2307;48.448;9.216;2022-08-04T09:52:43;95288.56;;;30.13;39.99
4590;BME280;2307;48.448;9.216;2022-08-04T09:55:14;95290.72;;;30.23;38.40
4590;BME280;2307;48.448;9.216;2022-08-04T09:57:44;95290.09;;;30.33;39.16
4590;BME280;2307;48.448;9.216;2022-08-04T10:00:15;95290.03;;;30.30;39.26
4590;BME280;2307;48.448;9.216;2022-08-04T10:02:46;95286.66;;;30.36;38.45
4590;BME280;2307;48.448;9.216;2022-08-04T10:05:14;95278.63;;;30.43;36.52
4590;BME280;2307;48.448;9.216;2022-08-04T10:07:50;95273.31;;;30.50;36.94
4590;BME280;2307;48.448;9.216;2022-08-04T10:10:27;95276.44;;;30.52;36.77
4590;BME280;2307;48.448;9.216;2022-08-04T10:13:08;95280.63;;;30.46;37.49
4590;BME280;2307;48.448;9.216;2022-08-04T10:15:42;95275.78;;;30.59;36.29
4590;BME280;2307;48.448;9.216;2022-08-04T10:18:16;95270.63;;;30.54;35.45
4590;BME280;2307;48.448;9.216;2022-08-04T10:20:48;95275.13;;;30.66;33.62
4590;BME280;2307;48.448;9.216;2022-08-04T10:23:22;95272.25;;;30.81;32.41
4590;BME280;2307;48.448;9.216;2022-08-04T10:25:56;95276.28;;;30.91;33.27
4590;BME280;2307;48.448;9.216;2022-08-04T10:28:27;95261.59;;;30.99;33.49
4590;BME280;2307;48.448;9.216;2022-08-04T10:30:56;95258.63;;;31.08;34.00
4590;BME280;2307;48.448;9.216;2022-08-04T10:33:24;95255.22;;;31.14;33.76
4590;BME280;2307;48.448;9.216;2022-08-04T10:35:54;95254.88;;;31.19;33.83
4590;BME280;2307;48.448;9.216;2022-08-04T10:38:28;95255.34;;;31.25;33.44
4590;BME280;2307;48.448;9.216;2022-08-04T10:40:55;95249.59;;;31.33;34.71
4590;BME280;2307;48.448;9.216;2022-08-04T10:43:24;95252.06;;;31.42;33.49
4590;BME280;2307;48.448;9.216;2022-08-04T10:45:55;95253.38;;;31.51;34.85
4590;BME280;2307;48.448;9.216;2022-08-04T10:48:26;95243.78;;;31.65;33.61
4590;BME280;2307;48.448;9.216;2022-08-04T10:50:58;95248.00;;;31.92;34.38
4590;BME280;2307;48.448;9.216;2022-08-04T10:53:28;95252.06;;;32.05;33.76
4590;BME280;2307;48.448;9.216;2022-08-04T10:55:56;95250.72;;;32.29;32.46
4590;BME280;2307;48.448;9.216;2022-08-04T10:58:25;95244.63;;;32.46;32.45
4590;BME280;2307;48.448;9.216;2022-08-04T11:00:54;95244.38;;;32.61;31.80
4590;BME280;2307;48.448;9.216;2022-08-04T11:03:22;95240.97;;;32.72;31.06
4590;BME280;2307;48.448;9.216;2022-08-04T11:05:51;95251.59;;;32.84;31.01
4590;BME280;2307;48.448;9.216;2022-08-04T11:08:20;95246.22;;;33.01;31.20
4590;BME280;2307;48.448;9.216;2022-08-04T11:10:50;95244.78;;;33.18;29.85
4590;BME280;2307;48.448;9.216;2022-08-04T11:13:20;95244.47;;;33.30;29.95
4590;BME280;2307;48.448;9.216;2022-08-04T11:15:50;95247.56;;;33.25;30.02
4590;BME280;2307;48.448;9.216;2022-08-04T11:18:28;95257.38;;;33.26;29.67
4590;BME280;2307;48.448;9.216;2022-08-04T11:21:00;95246.13;;;33.49;29.01
4590;BME280;2307;48.448;9.216;2022-08-04T11:23:29;95245.47;;;33.70;30.16
4590;BME280;2307;48.448;9.216;2022-08-04T11:26:03;95248.59;;;33.75;30.04
4590;BME280;2307;48.448;9.216;2022-08-04T11:28:36;95250.19;;;33.80;29.80
4590;BME280;2307;48.448;9.216;2022-08-04T11:31:04;95248.59;;;33.64;30.42
4590;BME280;2307;48.448;9.216;2022-08-04T11:33:34;95249.34;;;33.65;29.56
4590;BME280;2307;48.448;9.216;2022-08-04T11:36:02;95253.31;;;33.78;29.18
4590;BME280;2307;48.448;9.216;2022-08-04T11:38:32;95245.53;;;33.98;29.46
4590;BME280;2307;48.448;9.216;2022-08-04T11:41:04;95244.38;;;34.09;28.06
4590;BME280;2307;48.448;9.216;2022-08-04T11:43:35;95247.19;;;34.27;29.55
4590;BME280;2307;48.448;9.216;2022-08-04T11:46:05;95241.72;;;34.34;29.28
4590;BME280;2307;48.448;9.216;2022-08-04T11:48:34;95244.06;;;34.46;29.42
4590;BME280;2307;48.448;9.216;2022-08-04T11:51:02;95235.44;;;34.55;29.22
4590;BME280;2307;48.448;9.216;2022-08-04T11:53:29;95240.19;;;34.68;28.99
4590;BME280;2307;48.448;9.216;2022-08-04T11:55:57;95240.94;;;34.76;28.98
4590;BME280;2307;48.448;9.216;2022-08-04T11:58:26;95249.19;;;34.87;28.88
4590;BME280;2307;48.448;9.216;2022-08-04T12:00:55;95246.03;;;34.92;28.79
4590;BME280;2307;48.448;9.216;2022-08-04T12:03:26;95251.50;;;35.02;28.34
4590;BME280;2307;48.448;9.216;2022-08-04T12:06:05;95246.03;;;35.20;27.12
4590;BME280;2307;48.448;9.216;2022-08-04T12:08:42;95239.31;;;35.25;28.48
4590;BME280;2307;48.448;9.216;2022-08-04T12:11:15;95248.34;;;35.25;28.43
4590;BME280;2307;48.448;9.216;2022-08-04T12:13:49;95247.94;;;35.27;28.40
4590;BME280;2307;48.448;9.216;2022-08-04T12:16:19;95236.19;;;35.30;27.77
4590;BME280;2307;48.448;9.216;2022-08-04T12:18:49;95242.41;;;35.44;28.57
4590;BME280;2307;48.448;9.216;2022-08-04T12:21:17;95242.41;;;35.44;28.10
4590;BME280;2307;48.448;9.216;2022-08-04T12:23:48;95239.19;;;35.70;27.44
4590;BME280;2307;48.448;9.216;2022-08-04T12:26:19;95231.38;;;35.58;26.19
4590;BME280;2307;48.448;9.216;2022-08-04T12:28:49;95235.16;;;35.93;25.16
4590;BME280;2307;48.448;9.216;2022-08-04T12:31:18;95234.28;;;36.10;25.55
4590;BME280;2307;48.448;9.216;2022-08-04T12:33:46;95239.09;;;35.92;25.33
4590;BME280;2307;48.448;9.216;2022-08-04T12:36:18;95234.34;;;35.96;25.62
4590;BME280;2307;48.448;9.216;2022-08-04T12:38:48;95224.44;;;36.12;25.69
4590;BME280;2307;48.448;9.216;2022-08-04T12:41:15;95227.13;;;36.23;25.03
4590;BME280;2307;48.448;9.216;2022-08-04T12:43:45;95224.00;;;36.21;24.95
4590;BME280;2307;48.448;9.216;2022-08-04T12:46:19;95221.88;;;36.46;25.56
4590;BME280;2307;48.448;9.216;2022-08-04T12:48:45;95226.91;;;36.51;25.49
4590;BME280;2307;48.448;9.216;2022-08-04T12:51:13;95221.44;;;36.48;25.99
4590;BME280;2307;48.448;9.216;2022-08-04T12:53:40;95220.72;;;36.44;26.26
4590;BME280;2307;48.448;9.216;2022-08-04T12:56:07;95218.63;;;36.62;25.81
4590;BME280;2307;48.448;9.216;2022-08-04T12:58:36;95219.31;;;36.69;25.84
4590;BME280;2307;48.448;9.216;2022-08-04T13:01:04;95220.56;;;36.65;25.75
4590;BME280;2307;48.448;9.216;2022-08-04T13:03:37;95222.69;;;36.40;24.74
4590;BME280;2307;48.448;9.216;2022-08-04T13:06:05;95218.44;;;36.28;24.52
4590;BME280;2307;48.448;9.216;2022-08-04T13:08:32;95222.34;;;36.34;24.87
4590;BME280;2307;48.448;9.216;2022-08-04T13:11:01;95225.44;;;36.40;24.47
4590;BME280;2307;48.448;9.216;2022-08-04T13:13:29;95218.34;;;36.42;24.23
4590;BME280;2307;48.448;9.216;2022-08-04T13:15:57;95216.72;;;36.48;24.33
4590;BME280;2307;48.448;9.216;2022-08-04T13:18:24;95207.66;;;36.96;24.01
4590;BME280;2307;48.448;9.216;2022-08-04T13:20:52;95209.38;;;37.23;22.93
4590;BME280;2307;48.448;9.216;2022-08-04T13:23:20;95200.53;;;37.05;23.32
4590;BME280;2307;48.448;9.216;2022-08-04T13:25:48;95200.78;;;37.18;23.20
4590;BME280;2307;48.448;9.216;2022-08-04T13:28:16;95188.81;;;37.32;23.26
4590;BME280;2307;48.448;9.216;2022-08-04T13:30:44;95190.28;;;37.40;23.96
4590;BME280;2307;48.448;9.216;2022-08-04T13:33:11;95187.50;;;37.09;24.03
4590;BME280;2307;48.448;9.216;2022-08-04T13:35:41;95178.69;;;37.21;23.44
4590;BME280;2307;48.448;9.216;2022-08-04T13:38:11;95181.97;;;37.43;23.81
4590;BME280;2307;48.448;9.216;2022-08-04T13:40:38;95186.13;;;37.58;22.76
4590;BME280;2307;48.448;9.216;2022-08-04T13:43:05;95179.53;;;37.52;22.77
4590;BME280;2307;48.448;9.216;2022-08-04T13:45:31;95174.75;;;37.22;24.56
4590;BME280;2307;48.448;9.216;2022-08-04T13:47:58;95174.50;;;37.44;23.93
4590;BME280;2307;48.448;9.216;2022-08-04T13:50:25;95179.34;;;37.66;22.92
4590;BME280;2307;48.448;9.216;2022-08-04T13:52:54;95173.19;;;37.55;22.83
4590;BME280;2307;48.448;9.216;2022-08-04T13:55:23;95163.78;;;37.53;23.05
4590;BME280;2307;48.448;9.216;2022-08-04T13:57:55;95165.84;;;37.45;22.98
4590;BME280;2307;48.448;9.216;2022-08-04T14:00:22;95156.50;;;37.36;24.57
4590;BME280;2307;48.448;9.216;2022-08-04T14:02:55;95165.91;;;37.38;23.04
4590;BME280;2307;48.448;9.216;2022-08-04T14:05:25;95155.78;;;37.28;24.00
4590;BME280;2307;48.448;9.216;2022-08-04T14:07:53;95159.66;;;36.97;24.43
4590;BME280;2307;48.448;9.216;2022-08-04T14:10:20;95155.78;;;36.53;24.51
4590;BME280;2307;48.448;9.216;2022-08-04T14:12:50;95147.09;;;36.58;25.19
4590;BME280;2307;48.448;9.216;2022-08-04T14:15:30;95147.38;;;36.67;25.15
4590;BME280;2307;48.448;9.216;2022-08-04T14:18:14;95151.25;;;36.73;25.14